الصفحة الرئيسية
METAR-TAF:

METAR-TAF

مطار :

مطار سياتل تاكوما الدولي

سياتيل / تاكوما, واشنطن, الولايات المتحدة

دائرة عرض: 47-26-41N, خط طول: 122-18-49W, ارتفاع: 130 متر

مراقبة الطقس الحالي

تاريخ ووقت الإصدار 29 دقيقة قبل الساعة 10:53UTC
ريح 10 عقدة من الشمال
درجة الحرارة 6°درجة مئوية
الرطوبة 87%
ضغط 1020 hPa
الرؤية: 16.1 كم
غيوم قليلة على ارتفاع 1500 قدم

METAR: KSEA 201053Z 01010KT 10SM FEW015 06/04 A3012 RMK AO2 SLP208 T00610039

زمن: 03:22 (11:22 UTC)

توقعات

تاريخ ووقت الإصدار 2ساعات و 24 دقيقة قبل الساعة 08:58UTC
التوقعات صالحة من20 الساعة 09 UTC إلى 21 الساعة 12 UTC
ريح 6 عقدة من الشمال/الشمال الشرقي
الرؤية: 10 كم
غيوم قليلة على ارتفاع 1500 قدم
مؤقت
من 20 الساعة 09 UTC إلى 20 الساعة 13 UTC
غيوم مفككة على ارتفاع 1500 قدم
من 20 الساعة 1300 UTC
ريح 6 عقدة من الشمال/الشمال الشرقي
الرؤية: 10 كم
سماء صافية
من 20 الساعة 2100 UTC
ريح 6 عقدة من الشمال
الرؤية: 10 كم
سماء صافية

TAF: KSEA 200858Z 2009/2112 03006KT P6SM FEW015 TEMPO 2009/2013 BKN015 FM201300 03006KT P6SM SKC FM202100 01006KT P6SM SKC

أرصاد الطقس والتوقعات من أكثر من 4000 مطار (تقارير الطقس للمطار METAR والتنبؤ بالطقس بالمطارTAF).

المحطات المتاحة هي النقط الصفراء والحمراء على الخريطة.

حرك المؤشر فوق النقطة لمعرفة اسم المحطة.

ثم انقر لمعرفة أرصاد وتوقعات الطقس.

لتغيير الخارطة: اضغط على الأزرار الخضراء مع رمز الصليب الأسود للتكبير. على الزر الأخضر مع شرطة للتصغير، أو على الأسهم الخضراء للخرائط المجاورة.


METAR-TAF: